Time;durP1;ratioP1;P1;durP2;ratioP2;P2;SDS_P1;SDS_P2;PMS_P1;PMS_P2;Temp;Humidity;BMP_temperature;BMP_pressure;BME280_temperature;BME280_humidity;BME280_pressure;Samples;Min_cycle;Max_cycle;Signal;HPM_P1;HPM_P2
2021/06/20 00:00:36;;;;;;;16.00;11.55;;;18.30;99.90;;;;;;5036740;28;20042;-89
2021/06/20 00:03:05;;;;;;;14.77;11.50;;;18.30;99.90;;;;;;5019435;28;20049;-89
2021/06/20 00:05:35;;;;;;;14.63;11.40;;;18.40;99.90;;;;;;5019626;28;20132;-88
2021/06/20 00:08:09;;;;;;;18.13;12.07;;;18.30;99.90;;;;;;5019492;28;20092;-88
2021/06/20 00:10:38;;;;;;;17.75;12.25;;;18.30;99.90;;;;;;5019617;28;20072;-88
2021/06/20 00:13:05;;;;;;;15.52;11.43;;;18.30;99.90;;;;;;5019288;28;20056;-88
2021/06/20 00:15:34;;;;;;;15.55;12.23;;;18.40;99.90;;;;;;5019979;28;20075;-88
2021/06/20 00:18:03;;;;;;;18.10;12.65;;;18.40;99.90;;;;;;5020520;28;20060;-89
2021/06/20 00:20:32;;;;;;;17.75;11.90;;;18.40;99.90;;;;;;5019582;28;20056;-89
2021/06/20 00:22:59;;;;;;;19.83;12.75;;;18.40;99.90;;;;;;5036923;28;20049;-88
2021/06/20 00:25:27;;;;;;;16.73;12.18;;;18.30;99.90;;;;;;5036193;28;20045;-89
2021/06/20 00:27:55;;;;;;;13.80;11.80;;;18.20;99.90;;;;;;5019200;28;20068;-89
2021/06/20 00:30:24;;;;;;;16.45;11.68;;;18.20;99.90;;;;;;5020741;28;20124;-89
2021/06/20 00:32:52;;;;;;;13.00;11.70;;;18.20;99.90;;;;;;5020860;28;20045;-89
2021/06/20 00:35:21;;;;;;;15.95;11.40;;;18.20;99.90;;;;;;5019634;28;20059;-89
2021/06/20 00:37:49;;;;;;;14.75;12.40;;;18.20;99.90;;;;;;5036104;28;20068;-89
2021/06/20 00:40:17;;;;;;;16.50;12.27;;;18.20;99.90;;;;;;5018831;28;20068;-88
2021/06/20 00:42:44;;;;;;;18.00;12.32;;;18.20;99.90;;;;;;5036415;28;20235;-88
2021/06/20 00:45:15;;;;;;;16.10;13.00;;;18.20;99.90;;;;;;5019136;28;20060;-89
2021/06/20 00:47:43;;;;;;;17.00;12.52;;;18.20;99.90;;;;;;5018478;28;21163;-88
2021/06/20 00:50:12;;;;;;;18.77;12.52;;;18.10;99.90;;;;;;5018643;28;20090;-88
2021/06/20 00:52:40;;;;;;;20.20;12.30;;;18.10;99.90;;;;;;5017345;28;20478;-88
2021/06/20 00:55:08;;;;;;;13.57;12.07;;;18.10;99.90;;;;;;5019058;28;20151;-89
2021/06/20 00:57:35;;;;;;;14.48;12.30;;;18.00;99.90;;;;;;5032649;28;20145;-88
2021/06/20 01:00:04;;;;;;;16.85;12.70;;;18.00;99.90;;;;;;5035653;28;20113;-87
2021/06/20 01:02:31;;;;;;;13.50;11.90;;;18.00;99.90;;;;;;5036214;28;20139;-88
2021/06/20 01:04:58;;;;;;;18.30;12.38;;;18.00;99.90;;;;;;5035462;28;20060;-87
2021/06/20 01:07:24;;;;;;;14.57;12.77;;;18.00;99.90;;;;;;5018216;28;20057;-88
2021/06/20 01:09:52;;;;;;;18.83;13.77;;;18.10;99.90;;;;;;5018341;28;20156;-89
2021/06/20 01:12:21;;;;;;;13.45;12.18;;;18.10;99.90;;;;;;5035697;28;20080;-89
2021/06/20 01:14:49;;;;;;;20.38;13.18;;;18.00;99.90;;;;;;5018612;28;20132;-89
2021/06/20 01:17:17;;;;;;;20.70;14.30;;;18.00;99.90;;;;;;5035520;28;20049;-89
2021/06/20 01:19:44;;;;;;;16.38;14.40;;;17.90;99.90;;;;;;5018128;28;20045;-89
2021/06/20 01:22:32;;;;;;;25.58;14.35;;;18.00;99.90;;;;;;5018586;28;20046;-88
2021/06/20 01:25:01;;;;;;;25.15;14.93;;;18.00;99.90;;;;;;5018475;28;20049;-89
2021/06/20 01:27:33;;;;;;;19.30;14.23;;;18.00;99.90;;;;;;5018372;28;20084;-89
2021/06/20 01:30:03;;;;;;;16.60;13.73;;;18.00;99.90;;;;;;5018047;28;19992;-87
2021/06/20 01:32:31;;;;;;;20.75;14.48;;;18.00;99.90;;;;;;5018129;28;20046;-89
2021/06/20 01:34:59;;;;;;;18.60;13.98;;;18.10;99.90;;;;;;5017970;28;20059;-88
2021/06/20 01:37:26;;;;;;;17.92;14.05;;;18.10;99.90;;;;;;5018174;28;20045;-89
2021/06/20 01:39:53;;;;;;;20.23;14.23;;;18.00;99.90;;;;;;5018224;28;20081;-89
2021/06/20 01:42:20;;;;;;;17.25;14.73;;;18.00;99.90;;;;;;5018123;28;20063;-89
2021/06/20 01:44:52;;;;;;;19.50;13.88;;;18.00;99.90;;;;;;5035144;28;20055;-88
2021/06/20 01:47:21;;;;;;;17.25;14.23;;;18.00;99.90;;;;;;5017866;28;20059;-89
2021/06/20 01:49:49;;;;;;;24.02;15.25;;;18.10;99.90;;;;;;5004647;28;20136;-89
2021/06/20 01:52:24;;;;;;;23.67;14.10;;;18.00;99.90;;;;;;4998287;28;20052;-88
2021/06/20 01:54:53;;;;;;;18.92;14.18;;;18.00;99.90;;;;;;4998271;28;20058;-89
2021/06/20 01:57:21;;;;;;;18.60;14.70;;;18.00;99.90;;;;;;4997838;28;20089;-89
2021/06/20 01:59:49;;;;;;;18.73;13.82;;;17.90;99.90;;;;;;4998035;28;20483;-89
2021/06/20 02:02:16;;;;;;;15.23;13.40;;;17.80;99.90;;;;;;4998069;28;20056;-89
2021/06/20 02:04:44;;;;;;;21.20;15.70;;;17.80;99.90;;;;;;4997567;28;20495;-89
2021/06/20 02:07:12;;;;;;;18.08;14.55;;;17.70;99.90;;;;;;4997858;28;20115;-89
2021/06/20 02:09:39;;;;;;;20.48;14.93;;;17.70;99.90;;;;;;4997574;28;20052;-89
2021/06/20 02:12:08;;;;;;;18.42;15.70;;;17.60;99.90;;;;;;4997805;28;20064;-88
2021/06/20 02:14:37;;;;;;;19.45;16.08;;;17.60;99.90;;;;;;4997696;28;20073;-89
2021/06/20 02:17:16;;;;;;;17.48;15.68;;;17.60;99.90;;;;;;5000845;28;20049;-88
2021/06/20 02:19:43;;;;;;;20.17;15.55;;;17.50;99.90;;;;;;5020211;28;20050;-88
2021/06/20 02:22:10;;;;;;;21.75;15.90;;;17.50;99.90;;;;;;5005282;28;20132;-89
2021/06/20 02:24:37;;;;;;;18.35;14.63;;;17.50;99.90;;;;;;4997356;28;20042;-88
2021/06/20 02:27:05;;;;;;;20.52;15.20;;;17.70;99.90;;;;;;4997496;28;20080;-89
2021/06/20 02:29:32;;;;;;;24.27;15.43;;;17.70;99.90;;;;;;4997230;28;20058;-89
2021/06/20 02:31:59;;;;;;;19.58;15.50;;;17.70;99.90;;;;;;4997331;28;20045;-89
2021/06/20 02:34:26;;;;;;;17.55;15.07;;;17.60;99.90;;;;;;5014587;28;20510;-89
2021/06/20 02:36:52;;;;;;;16.85;15.07;;;17.60;99.90;;;;;;5014237;28;20149;-89
2021/06/20 02:39:19;;;;;;;18.35;14.57;;;17.60;99.90;;;;;;5013556;28;20506;-89
2021/06/20 02:41:49;;;;;;;23.17;15.73;;;17.70;99.90;;;;;;4997051;28;20072;-89
2021/06/20 02:44:17;;;;;;;17.17;15.40;;;17.70;99.90;;;;;;5000110;28;20042;-88
2021/06/20 02:46:45;;;;;;;18.92;15.02;;;17.60;99.90;;;;;;4997603;28;20064;-89
2021/06/20 02:49:12;;;;;;;16.45;14.68;;;17.70;99.90;;;;;;5028669;28;20050;-90
2021/06/20 02:51:42;;;;;;;19.90;15.10;;;17.80;99.90;;;;;;5016838;28;20510;-88
2021/06/20 02:54:12;;;;;;;17.05;14.75;;;17.80;99.90;;;;;;5016709;28;20171;-88
2021/06/20 02:56:40;;;;;;;18.02;14.30;;;17.90;99.90;;;;;;5033637;28;20084;-87
2021/06/20 02:59:07;;;;;;;18.67;14.57;;;17.90;99.90;;;;;;5016770;28;20100;-89
2021/06/20 03:01:33;;;;;;;17.33;14.95;;;18.00;99.90;;;;;;5016274;28;20104;-88
2021/06/20 03:04:01;;;;;;;15.02;13.45;;;18.10;99.90;;;;;;5016347;28;20482;-88
2021/06/20 03:06:27;;;;;;;18.98;14.05;;;18.10;99.90;;;;;;5016516;28;20045;-88
2021/06/20 03:08:54;;;;;;;15.25;13.63;;;18.20;99.90;;;;;;5033609;28;20053;-88
2021/06/20 03:11:21;;;;;;;18.42;13.80;;;18.40;99.90;;;;;;5016178;28;20554;-89
2021/06/20 03:13:49;;;;;;;18.27;13.52;;;18.40;99.90;;;;;;5016247;28;20045;-88
2021/06/20 03:16:17;;;;;;;18.83;13.18;;;18.50;99.90;;;;;;5032798;28;20049;-88
2021/06/20 03:18:44;;;;;;;17.65;13.48;;;18.50;99.90;;;;;;5016391;28;20517;-87
2021/06/20 03:21:11;;;;;;;16.90;14.13;;;18.60;99.90;;;;;;5016101;28;20053;-87
2021/06/20 03:23:38;;;;;;;20.38;13.48;;;18.60;99.90;;;;;;5016210;28;20041;-87
2021/06/20 03:26:05;;;;;;;14.65;12.68;;;18.60;99.90;;;;;;5016058;28;20409;-88
2021/06/20 03:28:32;;;;;;;17.83;12.32;;;18.60;99.90;;;;;;5016093;28;20081;-87
2021/06/20 03:30:59;;;;;;;16.50;13.60;;;18.60;99.90;;;;;;5015903;28;20053;-89
2021/06/20 03:33:25;;;;;;;15.63;13.40;;;18.60;99.90;;;;;;5016408;28;20049;-87
2021/06/20 03:35:52;;;;;;;19.20;12.80;;;18.60;99.90;;;;;;5018524;28;20053;-88
2021/06/20 03:38:19;;;;;;;14.25;12.25;;;18.60;99.90;;;;;;5038670;28;20052;-88
2021/06/20 03:40:46;;;;;;;17.88;13.00;;;18.60;99.90;;;;;;5031156;28;20050;-88
2021/06/20 03:43:12;;;;;;;14.93;13.15;;;18.70;99.90;;;;;;5016204;28;20064;-87
2021/06/20 03:45:40;;;;;;;16.58;13.25;;;18.70;99.90;;;;;;5016038;28;20045;-87
2021/06/20 03:48:07;;;;;;;14.30;12.75;;;18.70;99.90;;;;;;5015820;28;20057;-87
2021/06/20 03:50:34;;;;;;;14.35;12.27;;;18.80;99.90;;;;;;5015974;28;20050;-88
2021/06/20 03:53:00;;;;;;;16.88;12.90;;;18.80;99.90;;;;;;5015975;28;20128;-87
2021/06/20 03:55:28;;;;;;;16.70;12.75;;;18.90;99.90;;;;;;5015564;28;20046;-87
2021/06/20 03:57:55;;;;;;;17.98;12.40;;;19.00;99.90;;;;;;5032895;28;20072;-87
2021/06/20 04:00:22;;;;;;;14.82;12.88;;;19.10;99.90;;;;;;5015676;28;20136;-87
2021/06/20 04:02:48;;;;;;;14.55;12.35;;;19.20;99.90;;;;;;5032966;28;20080;-88
2021/06/20 04:05:15;;;;;;;13.77;12.43;;;19.20;99.90;;;;;;5015735;28;20053;-86
2021/06/20 04:07:43;;;;;;;14.40;12.10;;;19.40;99.90;;;;;;5033072;28;20080;-86
2021/06/20 04:10:10;;;;;;;18.35;11.63;;;19.50;99.90;;;;;;5033362;28;20053;-87
2021/06/20 04:12:37;;;;;;;16.73;11.80;;;19.60;99.90;;;;;;5033128;28;20077;-86
2021/06/20 04:15:05;;;;;;;17.00;11.13;;;19.70;99.90;;;;;;5015491;28;20060;-89
2021/06/20 04:17:34;;;;;;;12.68;11.45;;;19.80;99.90;;;;;;5015870;28;20478;-87
2021/06/20 04:20:03;;;;;;;16.15;11.70;;;19.80;99.90;;;;;;5015597;28;20469;-87
2021/06/20 04:22:30;;;;;;;15.82;12.63;;;19.80;99.90;;;;;;5032947;28;20124;-87
2021/06/20 04:24:56;;;;;;;12.40;11.07;;;19.80;99.90;;;;;;5015483;28;20532;-85
2021/06/20 04:27:23;;;;;;;16.02;12.07;;;19.80;99.90;;;;;;5018155;28;20058;-87
2021/06/20 04:29:50;;;;;;;15.57;12.05;;;19.80;99.90;;;;;;5019213;28;20045;-86
2021/06/20 04:32:17;;;;;;;16.13;12.45;;;19.80;99.90;;;;;;5036434;28;20504;-85
2021/06/20 04:34:44;;;;;;;12.18;11.07;;;19.80;99.90;;;;;;5019108;28;20053;-87
2021/06/20 04:37:10;;;;;;;13.32;12.02;;;19.90;99.90;;;;;;5036081;28;20049;-88
2021/06/20 04:39:37;;;;;;;12.20;11.10;;;19.90;99.90;;;;;;5018780;28;20049;-86
2021/06/20 04:42:06;;;;;;;16.85;11.13;;;20.00;99.90;;;;;;5019296;28;20083;-88
2021/06/20 04:44:43;;;;;;;12.90;11.43;;;20.00;99.90;;;;;;5035968;28;20482;-86
2021/06/20 04:47:21;;;;;;;19.70;12.02;;;20.10;99.90;;;;;;5036004;28;20120;-86
2021/06/20 04:49:52;;;;;;;15.05;11.35;;;20.20;99.90;;;;;;5035848;28;20055;-86
2021/06/20 04:52:19;;;;;;;26.88;13.30;;;20.20;99.90;;;;;;5019032;28;20490;-88
2021/06/20 04:54:49;;;;;;;15.82;12.13;;;20.30;99.90;;;;;;5018727;28;20132;-86
2021/06/20 04:57:25;;;;;;;12.88;11.25;;;20.40;99.90;;;;;;5041441;28;20037;-87
2021/06/20 04:59:54;;;;;;;16.05;11.25;;;20.50;99.90;;;;;;5052718;28;20136;-87
2021/06/20 05:02:21;;;;;;;15.05;11.60;;;20.60;99.90;;;;;;5021618;28;20052;-88
2021/06/20 05:04:49;;;;;;;12.82;10.93;;;20.70;99.90;;;;;;5018077;28;20080;-86
2021/06/20 05:07:17;;;;;;;16.77;10.68;;;20.90;99.90;;;;;;5018370;28;20049;-86
2021/06/20 05:09:44;;;;;;;11.45;10.27;;;21.10;99.90;;;;;;5018425;28;20064;-87
2021/06/20 05:12:11;;;;;;;10.38;9.32;;;21.50;99.90;;;;;;5035747;28;20124;-86
2021/06/20 05:14:39;;;;;;;10.80;9.18;;;21.90;99.90;;;;;;5018202;28;20107;-86
2021/06/20 05:17:06;;;;;;;10.77;9.68;;;22.20;99.90;;;;;;5018071;28;20051;-87
2021/06/20 05:19:33;;;;;;;10.80;9.10;;;22.60;99.90;;;;;;5018339;28;20075;-85
2021/06/20 05:22:00;;;;;;;11.05;9.40;;;22.80;99.90;;;;;;5018115;28;20046;-86
2021/06/20 05:24:27;;;;;;;10.70;8.98;;;23.20;99.90;;;;;;5018057;28;20421;-87
2021/06/20 05:26:54;;;;;;;10.25;8.15;;;23.50;99.90;;;;;;5017833;28;20042;-86
2021/06/20 05:29:20;;;;;;;9.85;7.78;;;23.90;99.90;;;;;;5034948;28;20046;-87
2021/06/20 05:31:47;;;;;;;12.30;8.45;;;24.20;99.90;;;;;;5017685;28;20055;-86
2021/06/20 05:34:14;;;;;;;11.45;8.05;;;24.30;99.90;;;;;;5018037;28;20052;-87
2021/06/20 05:36:41;;;;;;;14.98;8.43;;;24.70;99.90;;;;;;5035079;28;20487;-85
2021/06/20 05:39:07;;;;;;;10.13;7.20;;;25.20;99.90;;;;;;5016994;28;20421;-86
2021/06/20 05:41:35;;;;;;;14.27;7.20;;;25.50;99.90;;;;;;5017822;28;20080;-87
2021/06/20 05:44:02;;;;;;;7.65;6.13;;;26.10;99.90;;;;;;5017885;28;20049;-86
2021/06/20 05:46:30;;;;;;;8.88;5.82;;;26.40;99.90;;;;;;5034665;28;20493;-86
2021/06/20 05:48:57;;;;;;;11.32;6.03;;;26.40;99.90;;;;;;5017087;28;20486;-86
2021/06/20 05:51:24;;;;;;;9.90;5.53;;;26.80;99.90;;;;;;5017417;28;20053;-86
2021/06/20 05:53:51;;;;;;;7.25;5.53;;;27.50;99.90;;;;;;5017341;28;20418;-86
2021/06/20 05:56:19;;;;;;;11.60;6.13;;;28.50;99.90;;;;;;5017331;28;20057;-86
2021/06/20 05:58:45;;;;;;;7.43;5.30;;;29.40;99.90;;;;;;5034526;28;20496;-85
2021/06/20 06:01:12;;;;;;;7.32;5.30;;;30.30;99.90;;;;;;5017075;28;20131;-87
2021/06/20 06:03:41;;;;;;;16.25;5.50;;;31.30;99.90;;;;;;5017457;28;20049;-86
2021/06/20 06:06:08;;;;;;;8.38;5.50;;;31.90;99.90;;;;;;5016657;28;20504;-86
2021/06/20 06:08:35;;;;;;;11.45;5.65;;;32.80;98.30;;;;;;5034407;28;20136;-88
2021/06/20 06:11:02;;;;;;;5.28;4.53;;;32.50;95.40;;;;;;5034439;28;20490;-86
2021/06/20 06:13:29;;;;;;;9.65;5.10;;;32.70;93.10;;;;;;5016977;28;20422;-85
2021/06/20 06:15:55;;;;;;;7.60;4.55;;;32.90;93.30;;;;;;5034668;28;20055;-85
2021/06/20 06:18:22;;;;;;;7.68;4.80;;;34.00;90.70;;;;;;5032690;28;20029;-85
2021/06/20 06:20:49;;;;;;;9.48;4.97;;;35.20;85.00;;;;;;5023591;28;20053;-85
2021/06/20 06:23:15;;;;;;;10.10;5.40;;;35.70;77.50;;;;;;5016937;28;20512;-85
2021/06/20 06:25:42;;;;;;;12.90;5.63;;;35.00;73.80;;;;;;5016604;28;20508;-88
2021/06/20 06:28:09;;;;;;;15.93;5.93;;;34.80;73.20;;;;;;5034139;28;20061;-85
2021/06/20 06:30:36;;;;;;;13.43;5.38;;;33.60;75.70;;;;;;5033751;28;20060;-86
2021/06/20 06:33:05;;;;;;;6.63;4.82;;;33.30;77.50;;;;;;5015187;28;20063;-85
2021/06/20 06:35:32;;;;;;;12.05;5.07;;;33.60;79.40;;;;;;5015424;28;20052;-85
2021/06/20 06:37:59;;;;;;;7.82;4.85;;;33.90;78.50;;;;;;5015575;28;20128;-84
2021/06/20 06:40:28;;;;;;;12.50;5.10;;;34.40;76.40;;;;;;5033074;28;20524;-85
2021/06/20 06:42:56;;;;;;;10.25;5.13;;;34.20;74.90;;;;;;5015675;28;20045;-83
2021/06/20 06:45:23;;;;;;;17.50;4.80;;;33.70;76.40;;;;;;5015373;28;20049;-84
2021/06/20 06:47:50;;;;;;;11.63;5.38;;;33.70;77.80;;;;;;5032434;28;20064;-84
2021/06/20 06:50:17;;;;;;;14.35;5.43;;;34.00;75.50;;;;;;5014317;28;20055;-85
2021/06/20 06:52:46;;;;;;;12.85;4.97;;;35.40;73.40;;;;;;5015879;28;20053;-85
2021/06/20 06:55:14;;;;;;;15.60;5.20;;;35.80;69.90;;;;;;5015362;28;20061;-85
2021/06/20 06:57:43;;;;;;;15.00;4.70;;;35.40;69.20;;;;;;5016094;28;20103;-85
2021/06/20 07:00:11;;;;;;;13.48;5.00;;;35.50;68.90;;;;;;5033243;28;20050;-85
2021/06/20 07:02:39;;;;;;;16.63;5.20;;;35.60;67.00;;;;;;5033667;28;20045;-85
2021/06/20 07:05:06;;;;;;;14.63;5.05;;;34.80;68.10;;;;;;5033293;28;20132;-85
2021/06/20 07:07:33;;;;;;;17.10;5.47;;;35.10;68.60;;;;;;5033750;28;20049;-85
2021/06/20 07:10:01;;;;;;;15.27;5.22;;;34.80;69.00;;;;;;5016354;28;20049;-83
2021/06/20 07:12:32;;;;;;;14.40;5.50;;;34.50;69.20;;;;;;5015867;28;20061;-85
2021/06/20 07:15:03;;;;;;;14.63;5.40;;;34.00;71.50;;;;;;5032809;28;20084;-85
2021/06/20 07:17:34;;;;;;;14.10;5.53;;;34.10;73.20;;;;;;5015655;28;20496;-84
2021/06/20 07:20:04;;;;;;;12.20;5.28;;;34.30;72.60;;;;;;5015484;28;20111;-84
2021/06/20 07:22:30;;;;;;;18.42;4.78;;;34.80;71.80;;;;;;5033055;28;20156;-86
2021/06/20 07:24:57;;;;;;;13.85;4.80;;;35.80;67.80;;;;;;5033383;28;20056;-88
2021/06/20 07:27:24;;;;;;;16.95;5.20;;;35.40;66.50;;;;;;5016113;28;20132;-86
2021/06/20 07:29:51;;;;;;;17.73;5.45;;;35.60;65.70;;;;;;5033049;28;20053;-87
2021/06/20 07:32:17;;;;;;;12.43;4.60;;;36.20;64.50;;;;;;5015039;28;20071;-84
2021/06/20 07:34:44;;;;;;;11.48;4.47;;;36.00;63.90;;;;;;5018235;28;20092;-85
2021/06/20 07:37:15;;;;;;;15.35;4.60;;;36.50;62.90;;;;;;5012114;28;20049;-85
2021/06/20 07:39:42;;;;;;;13.15;5.22;;;37.10;61.60;;;;;;5012036;28;20050;-84
2021/06/20 07:42:09;;;;;;;14.25;4.53;;;38.00;59.60;;;;;;5011825;28;20524;-84
2021/06/20 07:44:35;;;;;;;17.88;5.72;;;37.10;57.60;;;;;;5011606;28;20056;-84
2021/06/20 07:47:02;;;;;;;12.18;3.72;;;35.90;58.60;;;;;;5011580;28;20495;-85
2021/06/20 07:49:29;;;;;;;17.27;3.95;;;35.70;59.20;;;;;;5011853;28;20168;-85
2021/06/20 07:51:56;;;;;;;9.60;3.78;;;35.00;60.70;;;;;;5012676;28;20137;-86
2021/06/20 07:54:22;;;;;;;23.70;5.57;;;34.60;61.10;;;;;;5012112;28;20129;-84
2021/06/20 07:56:49;;;;;;;11.23;4.70;;;34.10;63.50;;;;;;5011621;28;20483;-84
2021/06/20 07:59:16;;;;;;;18.73;4.88;;;34.60;63.70;;;;;;5006206;28;20088;-86
2021/06/20 08:01:43;;;;;;;17.00;4.00;;;35.00;63.10;;;;;;5006472;28;20051;-84
2021/06/20 08:04:10;;;;;;;10.50;3.67;;;35.60;61.70;;;;;;5016377;28;20057;-84
2021/06/20 08:06:37;;;;;;;12.10;3.80;;;36.60;59.40;;;;;;5016314;28;20046;-85
2021/06/20 08:09:04;;;;;;;7.22;2.92;;;37.60;57.50;;;;;;5015325;28;20410;-83
2021/06/20 08:11:33;;;;;;;9.85;3.10;;;37.90;56.10;;;;;;5015172;28;20136;-83
2021/06/20 08:14:02;;;;;;;12.75;3.70;;;38.20;55.50;;;;;;5016391;28;20077;-84
2021/06/20 08:16:30;;;;;;;13.13;3.90;;;39.80;54.00;;;;;;5016154;28;20072;-86
2021/06/20 08:18:57;;;;;;;13.52;3.75;;;39.60;51.70;;;;;;5016443;28;20057;-84
2021/06/20 08:21:24;;;;;;;8.50;3.00;;;39.40;53.00;;;;;;5016190;28;20498;-84
2021/06/20 08:23:51;;;;;;;14.18;3.70;;;40.30;51.90;;;;;;5015379;28;20060;-85
2021/06/20 08:26:18;;;;;;;12.25;3.92;;;39.80;50.80;;;;;;5016179;28;20136;-83
2021/06/20 08:28:45;;;;;;;12.50;3.50;;;38.80;52.90;;;;;;5015167;28;20414;-85
2021/06/20 08:31:12;;;;;;;11.10;3.90;;;39.40;52.40;;;;;;5014908;28;20057;-85
2021/06/20 08:33:39;;;;;;;32.90;5.20;;;38.50;51.30;;;;;;5015235;28;20049;-82
2021/06/20 08:36:06;;;;;;;13.68;3.20;;;36.90;52.00;;;;;;5015560;28;20136;-83
2021/06/20 08:38:33;;;;;;;12.05;3.58;;;36.40;53.90;;;;;;5015931;28;20048;-85
2021/06/20 08:41:01;;;;;;;8.30;4.00;;;37.40;53.80;;;;;;5014083;28;20140;-85
2021/06/20 08:43:28;;;;;;;8.95;3.40;;;37.90;53.10;;;;;;5015581;28;20395;-84
2021/06/20 08:45:55;;;;;;;15.25;3.60;;;38.10;52.70;;;;;;5021221;28;20052;-84
2021/06/20 08:48:22;;;;;;;10.30;3.22;;;38.50;52.10;;;;;;5006514;28;20141;-85
2021/06/20 08:50:50;;;;;;;13.82;4.03;;;39.20;50.30;;;;;;4997818;28;20465;-83
2021/06/20 08:53:20;;;;;;;12.38;3.72;;;38.40;50.50;;;;;;4998104;28;20041;-83
2021/06/20 08:55:48;;;;;;;12.00;2.65;;;38.20;49.70;;;;;;4997805;28;20054;-83
2021/06/20 08:58:19;;;;;;;9.32;2.92;;;38.90;48.50;;;;;;5015620;28;20054;-84
2021/06/20 09:00:47;;;;;;;10.00;3.13;;;37.80;48.90;;;;;;4999035;28;20056;-83
2021/06/20 09:03:14;;;;;;;12.27;3.55;;;36.90;51.60;;;;;;5017140;28;20057;-82
2021/06/20 09:05:58;;;;;;;10.77;3.00;;;36.80;51.10;;;;;;5015242;28;20089;-83
2021/06/20 09:08:27;;;;;;;12.90;2.67;;;36.50;51.90;;;;;;5014747;28;20529;-85
2021/06/20 09:10:58;;;;;;;10.18;3.17;;;36.00;52.40;;;;;;5015584;28;20056;-84
2021/06/20 09:13:37;;;;;;;7.50;3.03;;;34.90;51.90;;;;;;5014736;28;20117;-83
2021/06/20 09:16:05;;;;;;;14.93;3.20;;;33.70;54.30;;;;;;5015048;28;20054;-82
2021/06/20 09:18:35;;;;;;;11.25;3.53;;;33.70;56.20;;;;;;4997735;28;20081;-82
2021/06/20 09:21:09;;;;;;;7.63;3.10;;;34.20;55.80;;;;;;4997882;28;20474;-83
2021/06/20 09:23:40;;;;;;;6.75;3.47;;;34.30;56.10;;;;;;4997979;28;20050;-84
2021/06/20 09:26:08;;;;;;;12.48;4.35;;;34.10;56.20;;;;;;4997502;28;20045;-83
2021/06/20 09:28:36;;;;;;;11.98;3.22;;;34.40;56.30;;;;;;5014822;28;20690;-83
2021/06/20 09:31:04;;;;;;;13.77;4.03;;;34.70;56.50;;;;;;4997763;28;20057;-83
2021/06/20 09:33:35;;;;;;;10.70;3.53;;;34.60;56.30;;;;;;5015497;28;20050;-83
2021/06/20 09:36:03;;;;;;;13.35;3.72;;;35.70;55.90;;;;;;4997453;28;20411;-83
2021/06/20 09:38:39;;;;;;;10.00;3.20;;;36.40;54.80;;;;;;4997535;28;20084;-84
2021/06/20 09:41:12;;;;;;;9.38;3.70;;;37.00;52.40;;;;;;4997502;28;20046;-81
2021/06/20 09:43:50;;;;;;;10.52;3.47;;;37.70;52.50;;;;;;4997382;28;20050;-82
2021/06/20 09:46:16;;;;;;;11.07;3.75;;;38.70;51.00;;;;;;4997532;28;20058;-83
2021/06/20 09:48:45;;;;;;;11.20;3.83;;;40.00;49.80;;;;;;4997186;28;20065;-83
2021/06/20 09:51:20;;;;;;;10.70;3.17;;;40.20;49.60;;;;;;4996862;28;20137;-84
2021/06/20 09:53:48;;;;;;;8.35;3.38;;;40.40;48.20;;;;;;4997060;28;20164;-82
2021/06/20 09:56:30;;;;;;;15.43;4.57;;;39.20;48.60;;;;;;4997060;28;20052;-83
2021/06/20 09:59:04;;;;;;;12.70;4.95;;;37.30;50.90;;;;;;5014532;28;20145;-83
2021/06/20 10:01:35;;;;;;;10.70;4.68;;;35.60;54.60;;;;;;4997082;28;20054;-83
2021/06/20 10:04:02;;;;;;;8.02;3.97;;;34.90;56.40;;;;;;4997167;28;20045;-83
2021/06/20 10:06:29;;;;;;;13.18;3.75;;;34.50;56.80;;;;;;5014030;28;20049;-82
2021/06/20 10:08:56;;;;;;;10.07;3.67;;;34.30;56.00;;;;;;5014603;28;20052;-83
2021/06/20 10:11:23;;;;;;;9.77;3.70;;;33.80;57.30;;;;;;5013794;28;20494;-82
2021/06/20 10:13:50;;;;;;;6.00;2.90;;;33.80;58.10;;;;;;5014079;28;20514;-84
2021/06/20 10:16:27;;;;;;;9.80;3.08;;;33.60;56.10;;;;;;4996831;28;20050;-83
2021/06/20 10:18:58;;;;;;;9.48;3.03;;;33.30;57.30;;;;;;5014090;28;20050;-83
2021/06/20 10:21:34;;;;;;;8.77;2.80;;;33.30;58.60;;;;;;4996823;28;20451;-83
2021/06/20 10:24:07;;;;;;;8.18;2.75;;;33.70;57.00;;;;;;4997031;28;20052;-84
2021/06/20 10:26:34;;;;;;;6.82;2.50;;;34.00;55.90;;;;;;5001994;28;20057;-85
2021/06/20 10:29:14;;;;;;;8.73;1.92;;;33.50;54.60;;;;;;5006373;28;20128;-86
2021/06/20 10:31:41;;;;;;;6.05;2.40;;;32.70;54.70;;;;;;5006117;28;20042;-84
2021/06/20 10:34:19;;;;;;;6.55;2.28;;;32.20;56.20;;;;;;4997719;28;20407;-82
2021/06/20 10:36:50;;;;;;;4.65;2.30;;;32.10;57.60;;;;;;5014241;28;20389;-82
2021/06/20 10:39:17;;;;;;;4.72;1.92;;;32.10;57.10;;;;;;5003542;28;20049;-84
2021/06/20 10:41:44;;;;;;;5.72;2.72;;;32.10;57.20;;;;;;4998599;28;20136;-83
2021/06/20 10:44:11;;;;;;;7.28;2.45;;;32.00;57.60;;;;;;4996016;28;20052;-83
2021/06/20 10:46:41;;;;;;;3.45;1.63;;;32.40;58.10;;;;;;4995964;28;20058;-84
2021/06/20 10:49:18;;;;;;;10.23;3.33;;;32.60;56.50;;;;;;5013398;28;20054;-83
2021/06/20 10:51:45;;;;;;;8.20;2.10;;;32.40;57.20;;;;;;4996083;28;20495;-83
2021/06/20 10:54:26;;;;;;;4.00;2.05;;;32.20;57.50;;;;;;5013654;28;20133;-84
2021/06/20 10:57:01;;;;;;;5.80;2.30;;;31.80;57.90;;;;;;4995763;28;20054;-83
2021/06/20 10:59:28;;;;;;;6.07;2.40;;;31.90;58.50;;;;;;4995775;28;20050;-82
2021/06/20 11:01:55;;;;;;;5.90;2.28;;;31.60;59.20;;;;;;4995986;28;20516;-83
2021/06/20 11:04:22;;;;;;;5.60;2.15;;;31.40;57.70;;;;;;4995992;28;20070;-85
2021/06/20 11:06:57;;;;;;;5.72;1.98;;;31.40;58.80;;;;;;4996409;28;20046;-84
2021/06/20 11:09:35;;;;;;;3.13;2.00;;;31.10;60.50;;;;;;4998677;28;20050;-83
2021/06/20 11:12:13;;;;;;;4.93;2.33;;;30.90;60.10;;;;;;5001141;28;20042;-83
2021/06/20 11:14:43;;;;;;;7.13;2.30;;;30.80;59.30;;;;;;5003017;28;20042;-84
2021/06/20 11:17:10;;;;;;;6.80;2.28;;;30.70;59.50;;;;;;5021171;28;20045;-83
2021/06/20 11:19:37;;;;;;;3.92;1.80;;;30.70;59.70;;;;;;5005057;28;20095;-84
2021/06/20 11:22:10;;;;;;;5.97;1.50;;;30.60;61.50;;;;;;4995398;28;20046;-83
2021/06/20 11:24:49;;;;;;;4.32;1.98;;;30.60;60.10;;;;;;5011973;28;20046;-84
2021/06/20 11:27:18;;;;;;;5.97;1.90;;;30.80;60.10;;;;;;4995378;28;20046;-83
2021/06/20 11:29:57;;;;;;;6.97;1.80;;;31.00;59.60;;;;;;4995105;28;20049;-83
2021/06/20 11:32:33;;;;;;;8.05;2.00;;;31.10;59.50;;;;;;4995471;28;20148;-83
2021/06/20 11:35:09;;;;;;;7.97;1.90;;;31.30;59.50;;;;;;5012886;28;20137;-84
2021/06/20 11:37:41;;;;;;;2.97;1.67;;;31.20;61.40;;;;;;5019248;28;20200;-84
2021/06/20 11:40:22;;;;;;;4.65;2.03;;;31.20;60.60;;;;;;5002193;28;20049;-84
2021/06/20 11:42:51;;;;;;;3.70;1.50;;;31.20;62.40;;;;;;5002094;28;20058;-84
2021/06/20 11:45:24;;;;;;;8.68;1.80;;;31.20;61.10;;;;;;5001812;28;20053;-83
2021/06/20 11:47:53;;;;;;;3.45;1.70;;;30.90;60.20;;;;;;5023541;28;20465;-83
2021/06/20 11:50:27;;;;;;;5.47;1.65;;;30.70;61.60;;;;;;5023998;28;20052;-84
2021/06/20 11:53:03;;;;;;;5.13;1.60;;;30.30;60.50;;;;;;5039109;28;20517;-83
2021/06/20 11:55:31;;;;;;;7.45;1.75;;;30.00;62.20;;;;;;5021488;28;20401;-83
2021/06/20 11:58:06;;;;;;;8.75;1.85;;;29.60;64.00;;;;;;5018782;28;20510;-83
2021/06/20 12:00:37;;;;;;;4.30;1.67;;;29.40;64.00;;;;;;5020387;28;20131;-86
2021/06/20 12:03:06;;;;;;;3.38;1.85;;;29.30;65.80;;;;;;5021476;28;20045;-84
2021/06/20 12:05:42;;;;;;;5.22;1.73;;;28.90;67.30;;;;;;5038586;28;20049;-84
2021/06/20 12:08:09;;;;;;;10.25;1.85;;;28.50;71.40;;;;;;5038922;28;20056;-83
2021/06/20 12:10:45;;;;;;;4.88;1.70;;;28.40;71.40;;;;;;5021390;28;20049;-83
2021/06/20 12:13:15;;;;;;;4.55;1.70;;;28.40;72.60;;;;;;5038640;28;20486;-83
2021/06/20 12:15:43;;;;;;;3.05;1.20;;;28.40;75.30;;;;;;5038234;28;20136;-84
2021/06/20 12:18:12;;;;;;;4.05;1.67;;;28.60;74.50;;;;;;5038432;28;20053;-83
2021/06/20 12:20:45;;;;;;;4.25;1.80;;;28.70;76.30;;;;;;5021044;28;20128;-84
2021/06/20 12:23:24;;;;;;;3.75;1.52;;;28.70;73.40;;;;;;5038432;28;20053;-83
2021/06/20 12:25:51;;;;;;;1.55;1.30;;;28.70;74.60;;;;;;5020697;28;20056;-84
2021/06/20 12:28:20;;;;;;;3.20;1.60;;;28.80;72.70;;;;;;5021026;28;20135;-84
2021/06/20 12:30:50;;;;;;;5.32;1.60;;;28.70;72.40;;;;;;5021115;28;20506;-84
2021/06/20 12:33:18;;;;;;;3.65;1.35;;;28.60;74.00;;;;;;5021207;28;20051;-84
2021/06/20 12:35:53;;;;;;;4.97;1.42;;;28.60;75.60;;;;;;5020791;28;20049;-84
2021/06/20 12:38:21;;;;;;;3.50;1.40;;;28.80;77.20;;;;;;5021182;28;20059;-84
2021/06/20 12:40:50;;;;;;;1.52;1.27;;;28.70;76.90;;;;;;5038335;28;20053;-84
2021/06/20 12:43:22;;;;;;;6.68;1.77;;;28.70;76.80;;;;;;5020785;28;20368;-84